createdAt,value
2018-05-03T00:01:04.770Z,13.50
2018-05-03T00:03:32.498Z,13.50
2018-05-03T00:06:00.179Z,13.50
2018-05-03T00:08:27.837Z,13.40
2018-05-03T00:10:55.429Z,13.40
2018-05-03T00:13:23.174Z,13.30
2018-05-03T00:15:50.738Z,13.30
2018-05-03T00:18:18.436Z,13.30
2018-05-03T00:20:46.307Z,13.30
2018-05-03T00:23:14.931Z,13.30
2018-05-03T00:25:42.544Z,13.30
2018-05-03T00:28:11.083Z,13.30
2018-05-03T00:30:38.973Z,13.30
2018-05-03T00:33:06.818Z,13.30
2018-05-03T00:35:34.425Z,13.30
2018-05-03T00:38:03.055Z,13.30
2018-05-03T00:40:30.817Z,13.30
2018-05-03T00:42:58.403Z,13.30
2018-05-03T00:45:26.816Z,13.20
2018-05-03T00:47:55.544Z,13.20
2018-05-03T00:50:23.237Z,13.10
2018-05-03T00:52:50.978Z,13.20
2018-05-03T00:55:18.635Z,13.20
2018-05-03T00:57:46.309Z,13.20
2018-05-03T01:00:13.948Z,13.20
2018-05-03T01:02:42.569Z,13.30
2018-05-03T01:05:10.100Z,13.30
2018-05-03T01:07:37.702Z,13.20
2018-05-03T01:10:05.511Z,13.20
2018-05-03T01:12:33.170Z,13.20
2018-05-03T01:15:00.951Z,13.20
2018-05-03T01:17:28.704Z,13.20
2018-05-03T01:19:56.583Z,13.20
2018-05-03T01:22:24.550Z,13.20
2018-05-03T01:24:52.335Z,13.20
2018-05-03T01:27:20.181Z,13.20
2018-05-03T01:29:47.743Z,13.10
2018-05-03T01:32:15.607Z,13.10
2018-05-03T01:34:43.372Z,13.10
2018-05-03T01:37:11.443Z,13.00
2018-05-03T01:39:39.005Z,13.00
2018-05-03T01:42:06.594Z,12.90
2018-05-03T01:44:34.941Z,12.90
2018-05-03T01:47:02.569Z,12.90
2018-05-03T01:49:30.276Z,12.90
2018-05-03T01:51:57.907Z,12.80
2018-05-03T01:54:26.382Z,12.80
2018-05-03T01:56:53.982Z,12.80
2018-05-03T01:59:21.949Z,12.80
2018-05-03T02:01:50.350Z,12.80
2018-05-03T02:04:18.164Z,12.80
2018-05-03T02:06:45.846Z,12.70
2018-05-03T02:09:13.721Z,12.60
2018-05-03T02:11:41.577Z,12.50
2018-05-03T02:14:09.340Z,12.50
2018-05-03T02:16:37.009Z,12.50
2018-05-03T02:19:04.603Z,12.40
2018-05-03T02:21:32.533Z,12.40
2018-05-03T02:24:00.402Z,12.40
2018-05-03T02:26:28.176Z,12.30
2018-05-03T02:28:55.926Z,12.30
2018-05-03T02:31:24.257Z,12.30
2018-05-03T02:33:52.797Z,12.20
2018-05-03T02:36:20.579Z,12.20
2018-05-03T02:38:49.123Z,12.20
2018-05-03T02:41:16.998Z,12.20
2018-05-03T02:43:44.879Z,12.30
2018-05-03T02:46:12.626Z,12.30
2018-05-03T02:48:40.289Z,12.30
2018-05-03T02:51:07.954Z,12.30
2018-05-03T02:53:35.744Z,12.30
2018-05-03T02:56:03.484Z,12.30
2018-05-03T02:58:43.024Z,12.30
2018-05-03T03:01:28.199Z,12.30
2018-05-03T03:04:22.703Z,12.30
2018-05-03T03:07:08.006Z,12.40
2018-05-03T03:10:02.893Z,12.50
2018-05-03T03:13:17.774Z,12.50
2018-05-03T03:16:03.111Z,12.50
2018-05-03T03:18:48.452Z,12.50
2018-05-03T03:21:34.008Z,12.50
2018-05-03T03:24:19.547Z,12.50
2018-05-03T03:27:05.850Z,12.50
2018-05-03T03:29:45.390Z,12.40
2018-05-03T03:32:26.221Z,12.50
2018-05-03T03:35:06.343Z,12.50
2018-05-03T03:37:46.061Z,12.40
2018-05-03T03:40:25.431Z,12.40
2018-05-03T03:43:14.123Z,12.40
2018-05-03T03:45:42.020Z,12.40
2018-05-03T03:48:10.703Z,12.40
2018-05-03T03:50:38.340Z,12.40
2018-05-03T03:53:06.067Z,12.40
2018-05-03T03:55:33.923Z,12.50
2018-05-03T03:58:02.166Z,12.50
2018-05-03T04:00:29.954Z,12.50
2018-05-03T04:02:57.624Z,12.50
2018-05-03T04:05:25.361Z,12.50
2018-05-03T04:07:53.223Z,12.50
2018-05-03T04:10:20.921Z,12.50
2018-05-03T04:12:48.619Z,12.50
2018-05-03T04:15:16.289Z,12.50
2018-05-03T04:17:55.992Z,12.50
2018-05-03T04:20:40.362Z,12.50
2018-05-03T04:23:30.651Z,12.50
2018-05-03T04:26:03.651Z,12.50
2018-05-03T04:28:31.463Z,12.40
2018-05-03T04:30:59.021Z,12.40
2018-05-03T04:33:26.717Z,12.50
2018-05-03T04:35:54.297Z,12.50
2018-05-03T04:38:22.703Z,12.50
2018-05-03T04:40:50.328Z,12.50
2018-05-03T04:43:18.810Z,12.60
2018-05-03T04:45:46.523Z,12.60
2018-05-03T04:48:14.252Z,12.60
2018-05-03T04:50:41.977Z,12.60
2018-05-03T04:53:09.712Z,12.50
2018-05-03T04:55:37.300Z,12.50
2018-05-03T04:58:05.003Z,12.60
2018-05-03T05:00:32.669Z,12.70
2018-05-03T05:03:01.128Z,12.80
2018-05-03T05:05:29.547Z,12.90
2018-05-03T05:07:57.203Z,12.90
2018-05-03T05:10:24.854Z,13.00
2018-05-03T05:12:53.262Z,13.00
2018-05-03T05:15:20.821Z,13.00
2018-05-03T05:17:48.500Z,13.00
2018-05-03T05:20:16.657Z,12.90
2018-05-03T05:22:44.326Z,13.00
2018-05-03T05:25:12.418Z,13.00
2018-05-03T05:27:40.093Z,13.10
2018-05-03T05:30:07.859Z,13.10
2018-05-03T05:32:35.689Z,13.20
2018-05-03T05:35:03.314Z,13.20
2018-05-03T05:37:31.109Z,13.10
2018-05-03T05:39:58.800Z,13.10
2018-05-03T05:42:28.357Z,13.10
2018-05-03T05:44:56.146Z,13.10
2018-05-03T05:47:23.851Z,13.20
2018-05-03T05:49:51.577Z,13.20
2018-05-03T05:52:19.210Z,13.20
2018-05-03T05:54:47.246Z,13.30
2018-05-03T05:57:14.866Z,13.30
2018-05-03T05:59:42.508Z,13.30
2018-05-03T06:02:10.354Z,13.30
2018-05-03T06:04:38.052Z,13.10
2018-05-03T06:07:05.700Z,13.10
2018-05-03T06:09:34.900Z,13.00
2018-05-03T06:12:02.968Z,13.00
2018-05-03T06:14:30.513Z,13.20
2018-05-03T06:16:58.408Z,13.40
2018-05-03T06:19:26.071Z,13.20
2018-05-03T06:21:53.837Z,13.10
2018-05-03T06:24:21.443Z,13.10
2018-05-03T06:26:49.809Z,13.10
2018-05-03T06:29:17.545Z,13.10
2018-05-03T06:31:45.336Z,13.20
2018-05-03T06:34:13.073Z,13.20
2018-05-03T06:36:40.931Z,13.40
2018-05-03T06:39:08.557Z,13.60
2018-05-03T06:41:37.367Z,13.90
2018-05-03T06:44:04.965Z,13.80
2018-05-03T06:46:32.706Z,13.90
2018-05-03T06:49:02.021Z,13.80
2018-05-03T06:51:29.664Z,13.80
2018-05-03T06:53:58.888Z,14.00
2018-05-03T06:56:26.734Z,14.00
2018-05-03T06:58:54.722Z,14.10
2018-05-03T07:01:22.358Z,14.00
2018-05-03T07:03:51.054Z,14.30
2018-05-03T07:06:18.674Z,14.30
2018-05-03T07:08:47.085Z,14.40
2018-05-03T07:11:14.762Z,14.40
2018-05-03T07:13:42.518Z,14.40
2018-05-03T07:16:10.201Z,14.40
2018-05-03T07:18:38.764Z,14.40
2018-05-03T07:21:06.359Z,14.40
2018-05-03T07:23:33.978Z,14.40
2018-05-03T07:26:01.581Z,14.50
2018-05-03T07:28:31.336Z,14.50
2018-05-03T07:30:58.954Z,14.60
2018-05-03T07:33:27.373Z,14.60
2018-05-03T07:35:55.080Z,14.60
2018-05-03T07:38:22.729Z,14.80
2018-05-03T07:40:50.464Z,14.90
2018-05-03T07:43:18.108Z,14.80
2018-05-03T07:45:46.513Z,14.90
2018-05-03T07:48:14.153Z,14.90
2018-05-03T07:50:41.906Z,14.90
2018-05-03T07:53:10.333Z,14.70
2018-05-03T07:55:38.025Z,14.70
2018-05-03T07:58:05.648Z,14.70
2018-05-03T08:00:33.285Z,14.80
2018-05-03T08:03:01.689Z,15.00
2018-05-03T08:05:30.688Z,15.00
2018-05-03T08:07:58.434Z,15.10
2018-05-03T08:10:26.056Z,15.20
2018-05-03T08:12:53.732Z,15.30
2018-05-03T08:15:22.933Z,15.20
2018-05-03T08:17:51.408Z,15.40
2018-05-03T08:20:19.868Z,15.50
2018-05-03T08:22:47.525Z,15.50
2018-05-03T08:25:19.517Z,15.60
2018-05-03T08:27:47.961Z,15.60
2018-05-03T08:30:15.838Z,15.60
2018-05-03T08:32:44.359Z,15.50
2018-05-03T08:35:12.973Z,15.50
2018-05-03T08:37:40.605Z,15.50
2018-05-03T08:40:08.501Z,15.50
2018-05-03T08:42:36.108Z,15.50
2018-05-03T08:45:04.544Z,15.40
2018-05-03T08:47:32.794Z,15.30
2018-05-03T08:50:01.221Z,15.20
2018-05-03T08:52:28.959Z,15.10
2018-05-03T08:54:57.417Z,15.10
2018-05-03T08:57:25.820Z,15.20
2018-05-03T08:59:53.412Z,15.20
2018-05-03T09:02:20.978Z,15.30
2018-05-03T09:04:48.713Z,15.20
2018-05-03T09:07:16.328Z,15.30
2018-05-03T09:09:44.217Z,15.30
2018-05-03T09:12:12.915Z,15.40
2018-05-03T09:14:40.770Z,15.40
2018-05-03T09:17:08.701Z,15.30
2018-05-03T09:19:37.336Z,15.60
2018-05-03T09:22:05.100Z,15.60
2018-05-03T09:24:32.740Z,15.50
2018-05-03T09:27:00.432Z,15.50
2018-05-03T09:29:28.291Z,15.50
2018-05-03T09:31:56.039Z,15.50
2018-05-03T09:34:23.775Z,15.70
2018-05-03T09:36:52.099Z,15.60
2018-05-03T09:39:19.743Z,15.60
2018-05-03T09:41:47.373Z,15.70
2018-05-03T09:44:15.048Z,15.80
2018-05-03T09:46:42.745Z,16.00
2018-05-03T09:49:10.431Z,16.00
2018-05-03T09:51:38.153Z,15.90
2018-05-03T09:54:05.755Z,15.80
2018-05-03T09:56:34.177Z,16.10
2018-05-03T09:59:02.573Z,16.10
2018-05-03T10:01:30.283Z,16.10
2018-05-03T10:03:58.769Z,16.30
2018-05-03T10:06:26.374Z,16.30
2018-05-03T10:08:54.088Z,16.20
2018-05-03T10:11:21.775Z,16.40
2018-05-03T10:13:50.222Z,16.80
2018-05-03T10:16:17.822Z,16.80
2018-05-03T10:18:46.262Z,17.30
2018-05-03T10:21:14.084Z,17.30
2018-05-03T10:23:41.735Z,17.30
2018-05-03T10:26:09.377Z,16.80
2018-05-03T10:28:37.022Z,16.30
2018-05-03T10:31:06.203Z,16.70
2018-05-03T10:33:33.949Z,16.70
2018-05-03T10:36:01.615Z,16.60
2018-05-03T10:38:30.062Z,16.50
2018-05-03T10:40:58.439Z,16.80
2018-05-03T10:43:26.445Z,16.80
2018-05-03T10:45:54.853Z,16.60
2018-05-03T10:48:22.684Z,16.40
2018-05-03T10:50:50.553Z,16.30
2018-05-03T10:53:19.579Z,16.30
2018-05-03T10:55:47.273Z,16.30
2018-05-03T10:58:15.082Z,16.30
2018-05-03T11:00:42.841Z,16.50
2018-05-03T11:03:10.708Z,16.60
2018-05-03T11:05:38.700Z,16.70
2018-05-03T11:08:07.183Z,16.50
2018-05-03T11:10:34.845Z,16.50
2018-05-03T11:13:02.586Z,16.60
2018-05-03T11:15:30.989Z,16.80
2018-05-03T11:17:59.648Z,16.80
2018-05-03T11:20:27.483Z,16.80
2018-05-03T11:22:55.291Z,16.90
2018-05-03T11:25:23.142Z,16.80
2018-05-03T11:27:51.116Z,17.00
2018-05-03T11:30:18.906Z,17.00
2018-05-03T11:32:46.798Z,16.80
2018-05-03T11:35:15.442Z,17.10
2018-05-03T11:37:43.414Z,17.10
2018-05-03T11:40:11.169Z,17.00
2018-05-03T11:42:39.073Z,17.20
2018-05-03T11:45:11.083Z,17.30
2018-05-03T11:47:38.962Z,17.10
2018-05-03T11:50:06.580Z,16.90
2018-05-03T11:52:35.292Z,17.40
2018-05-03T11:55:02.916Z,17.40
2018-05-03T11:57:30.560Z,17.20
2018-05-03T11:59:58.394Z,17.50
2018-05-03T12:02:26.229Z,17.50
2018-05-03T12:04:54.443Z,17.70
2018-05-03T12:07:23.034Z,17.90
2018-05-03T12:09:50.693Z,17.80
2018-05-03T12:12:18.624Z,17.90
2018-05-03T12:14:47.004Z,17.50
2018-05-03T12:17:15.857Z,17.50
2018-05-03T12:19:43.424Z,17.50
2018-05-03T12:22:11.052Z,17.40
2018-05-03T12:24:38.723Z,17.50
2018-05-03T12:27:07.190Z,17.80
2018-05-03T12:29:34.798Z,17.70
2018-05-03T12:32:03.213Z,18.00
2018-05-03T12:34:30.977Z,18.00
2018-05-03T12:37:03.606Z,17.80
2018-05-03T12:39:31.588Z,17.90
2018-05-03T12:41:59.209Z,17.60
2018-05-03T12:44:27.064Z,17.70
2018-05-03T12:46:54.841Z,17.60
2018-05-03T12:49:22.605Z,17.80
2018-05-03T12:51:51.593Z,17.90
2018-05-03T12:54:19.243Z,18.30
2018-05-03T12:56:47.216Z,18.10
2018-05-03T12:59:14.978Z,18.10
2018-05-03T13:01:42.684Z,17.80
2018-05-03T13:04:10.346Z,17.90
2018-05-03T13:06:37.993Z,17.90
2018-05-03T13:09:05.697Z,18.00
2018-05-03T13:11:34.218Z,18.20
2018-05-03T13:14:01.908Z,18.20
2018-05-03T13:16:29.517Z,18.30
2018-05-03T13:18:57.221Z,18.10
2018-05-03T13:21:24.951Z,18.10
2018-05-03T13:23:52.520Z,18.40
2018-05-03T13:26:20.388Z,18.80
2018-05-03T13:28:48.106Z,18.70
2018-05-03T13:31:15.815Z,18.70
2018-05-03T13:33:43.545Z,18.90
2018-05-03T13:36:12.176Z,19.30
2018-05-03T13:38:40.050Z,19.30
2018-05-03T13:41:07.701Z,19.30
2018-05-03T13:43:36.274Z,19.20
2018-05-03T13:46:04.097Z,19.00
2018-05-03T13:48:32.540Z,19.30
2018-05-03T13:51:00.291Z,19.30
2018-05-03T13:53:28.932Z,19.10
2018-05-03T13:55:56.597Z,18.90
2018-05-03T13:58:24.500Z,18.70
2018-05-03T14:00:52.243Z,18.50
2018-05-03T14:03:20.054Z,18.60
2018-05-03T14:05:47.702Z,18.60
2018-05-03T14:08:15.659Z,18.50
2018-05-03T14:10:43.664Z,18.40
2018-05-03T14:13:12.501Z,18.80
2018-05-03T14:15:40.598Z,18.70
2018-05-03T14:18:08.336Z,18.70
2018-05-03T14:20:36.329Z,18.80
2018-05-03T14:23:04.210Z,18.70
2018-05-03T14:25:33.388Z,18.60
2018-05-03T14:28:01.151Z,18.70
2018-05-03T14:30:28.761Z,18.80
2018-05-03T14:32:56.502Z,19.10
2018-05-03T14:35:24.615Z,18.80
2018-05-03T14:37:52.515Z,18.80
2018-05-03T14:40:20.137Z,18.80
2018-05-03T14:42:48.762Z,18.90
2018-05-03T14:45:16.628Z,18.90
2018-05-03T14:47:44.272Z,18.90
2018-05-03T14:52:45.873Z,18.80
2018-05-03T14:55:13.590Z,18.80
2018-05-03T14:57:41.392Z,18.80
2018-05-03T15:00:10.177Z,18.70
2018-05-03T15:02:38.045Z,18.60
2018-05-03T15:05:06.025Z,18.70
2018-05-03T15:07:33.803Z,19.00
2018-05-03T15:10:01.471Z,18.90
2018-05-03T15:12:46.678Z,18.70
2018-05-03T15:15:16.821Z,18.70
2018-05-03T15:17:58.959Z,18.70
2018-05-03T15:20:36.205Z,18.70
2018-05-03T15:23:03.947Z,18.80
2018-05-03T15:25:31.575Z,18.90
2018-05-03T15:28:00.065Z,18.80
2018-05-03T15:30:27.747Z,18.80
2018-05-03T15:32:59.959Z,18.70
2018-05-03T15:35:27.580Z,18.60
2018-05-03T15:37:56.022Z,18.80
2018-05-03T15:40:23.588Z,18.70
2018-05-03T15:42:51.354Z,18.70
2018-05-03T15:45:18.900Z,18.60
2018-05-03T15:47:46.768Z,18.60
2018-05-03T15:50:15.295Z,18.60
2018-05-03T15:52:43.878Z,18.60
2018-05-03T15:55:12.717Z,18.50
2018-05-03T15:57:41.414Z,18.40
2018-05-03T16:00:09.858Z,18.40
2018-05-03T16:02:37.470Z,18.30
2018-05-03T16:05:05.871Z,18.40
2018-05-03T16:07:33.479Z,18.40
2018-05-03T16:10:02.721Z,18.50
2018-05-03T16:12:30.541Z,18.50
2018-05-03T16:14:58.197Z,18.50
2018-05-03T16:17:33.450Z,18.50
2018-05-03T16:20:01.447Z,18.50
2018-05-03T16:22:29.912Z,18.40
2018-05-03T16:24:57.683Z,18.40
2018-05-03T16:27:25.427Z,18.40
2018-05-03T16:29:54.443Z,18.30
2018-05-03T16:32:22.210Z,18.40
2018-05-03T16:34:52.627Z,18.40
2018-05-03T16:37:21.402Z,18.50
2018-05-03T16:39:49.532Z,18.50
2018-05-03T16:42:17.382Z,18.50
2018-05-03T16:44:45.734Z,18.30
2018-05-03T16:47:14.371Z,18.20
2018-05-03T16:49:42.066Z,18.30
2018-05-03T16:52:10.008Z,18.20
2018-05-03T16:54:37.866Z,18.20
2018-05-03T16:57:05.589Z,18.10
2018-05-03T16:59:34.028Z,18.10
2018-05-03T17:02:01.880Z,18.10
2018-05-03T17:04:29.504Z,18.10
2018-05-03T17:06:57.986Z,18.10
2018-05-03T17:09:25.631Z,18.10
2018-05-03T17:11:54.060Z,18.10
2018-05-03T17:14:21.699Z,18.10
2018-05-03T17:16:49.384Z,18.00
2018-05-03T17:19:17.040Z,18.00
2018-05-03T17:21:44.726Z,18.00
2018-05-03T17:24:13.295Z,17.90
2018-05-03T17:26:40.906Z,17.80
2018-05-03T17:29:18.181Z,17.90
2018-05-03T17:31:46.024Z,17.80
2018-05-03T17:34:13.787Z,17.80
2018-05-03T17:36:41.679Z,17.80
2018-05-03T17:39:09.536Z,17.70
2018-05-03T17:41:37.520Z,17.70
2018-05-03T17:44:05.565Z,17.70
2018-05-03T17:46:33.325Z,17.70
2018-05-03T17:49:01.171Z,17.70
2018-05-03T17:51:28.974Z,17.70
2018-05-03T17:53:56.751Z,17.70
2018-05-03T17:56:25.487Z,17.60
2018-05-03T17:58:54.103Z,17.50
2018-05-03T18:01:21.990Z,17.50
2018-05-03T18:03:50.445Z,17.40
2018-05-03T18:06:18.206Z,17.40
2018-05-03T18:08:46.082Z,17.40
2018-05-03T18:11:13.938Z,17.30
2018-05-03T18:13:41.753Z,17.30
2018-05-03T18:16:10.360Z,17.20
2018-05-03T18:18:39.457Z,17.20
2018-05-03T18:21:07.995Z,17.10
2018-05-03T18:23:36.622Z,17.10
2018-05-03T18:26:05.016Z,17.10
2018-05-03T18:28:32.658Z,17.10
2018-05-03T18:31:01.923Z,17.00
2018-05-03T18:33:29.914Z,17.00
2018-05-03T18:35:58.664Z,17.00
2018-05-03T18:38:26.617Z,16.90
2018-05-03T18:40:54.341Z,16.90
2018-05-03T18:43:22.924Z,16.90
2018-05-03T18:45:50.535Z,16.90
2018-05-03T18:48:18.405Z,16.90
2018-05-03T18:50:46.168Z,16.90
2018-05-03T18:53:13.797Z,16.90
2018-05-03T18:55:41.692Z,16.90
2018-05-03T18:58:09.548Z,16.90
2018-05-03T19:00:37.284Z,16.90
2018-05-03T19:03:06.024Z,16.90
2018-05-03T19:05:34.431Z,16.80
2018-05-03T19:08:02.254Z,16.80
2018-05-03T19:10:29.871Z,16.80
2018-05-03T19:12:58.872Z,16.80
2018-05-03T19:15:26.612Z,16.80
2018-05-03T19:17:54.384Z,16.80
2018-05-03T19:20:22.194Z,16.80
2018-05-03T19:22:50.076Z,16.70
2018-05-03T19:25:17.829Z,16.70
2018-05-03T19:27:45.710Z,16.70
2018-05-03T19:30:13.354Z,16.70
2018-05-03T19:32:40.988Z,16.70
2018-05-03T19:35:09.557Z,16.70
2018-05-03T19:37:38.095Z,16.70
2018-05-03T19:40:06.575Z,16.70
2018-05-03T19:42:34.753Z,16.70
2018-05-03T19:45:02.566Z,16.70
2018-05-03T19:47:30.228Z,16.70
2018-05-03T19:49:57.927Z,16.70
2018-05-03T19:52:25.636Z,16.70
2018-05-03T19:54:54.274Z,16.80
2018-05-03T19:57:21.903Z,16.70
2018-05-03T19:59:50.724Z,16.60
2018-05-03T20:02:18.709Z,16.60
2018-05-03T20:04:46.297Z,16.60
2018-05-03T20:07:14.821Z,16.60
2018-05-03T20:09:42.468Z,16.60
2018-05-03T20:12:11.153Z,16.60
2018-05-03T20:14:38.854Z,16.60
2018-05-03T20:17:06.713Z,16.60
2018-05-03T20:19:34.680Z,16.60
2018-05-03T20:22:02.444Z,16.50
2018-05-03T20:24:30.086Z,16.50
2018-05-03T20:26:58.182Z,16.50
2018-05-03T20:29:26.026Z,16.60
2018-05-03T20:31:55.093Z,16.50
2018-05-03T20:34:23.837Z,16.50
2018-05-03T20:36:53.132Z,16.50
2018-05-03T20:39:21.096Z,16.50
2018-05-03T20:41:49.559Z,16.50
2018-05-03T20:44:18.044Z,16.50
2018-05-03T20:46:45.756Z,16.50
2018-05-03T20:49:13.620Z,16.50
2018-05-03T20:51:41.240Z,16.50
2018-05-03T20:54:09.131Z,16.50
2018-05-03T20:56:37.448Z,16.40
2018-05-03T20:59:05.959Z,16.40
2018-05-03T21:01:33.628Z,16.40
2018-05-03T21:04:02.951Z,16.40
2018-05-03T21:06:30.719Z,16.40
2018-05-03T21:08:58.438Z,16.30
2018-05-03T21:11:26.066Z,16.20
2018-05-03T21:13:54.525Z,16.20
2018-05-03T21:16:23.809Z,16.20
2018-05-03T21:18:51.447Z,16.10
2018-05-03T21:21:19.232Z,16.20
2018-05-03T21:23:48.764Z,16.20
2018-05-03T21:26:16.468Z,16.10
2018-05-03T21:28:44.465Z,16.00
2018-05-03T21:31:12.855Z,16.10
2018-05-03T21:33:40.817Z,16.10
2018-05-03T21:36:09.231Z,16.10
2018-05-03T21:38:36.904Z,16.00
2018-05-03T21:41:04.725Z,15.90
2018-05-03T21:43:33.086Z,15.80
2018-05-03T21:46:01.019Z,15.80
2018-05-03T21:48:28.660Z,15.70
2018-05-03T21:50:56.610Z,15.60
2018-05-03T21:53:24.350Z,15.60
2018-05-03T21:55:52.334Z,15.60
2018-05-03T21:58:20.206Z,15.60
2018-05-03T22:00:47.900Z,15.50
2018-05-03T22:03:16.514Z,15.50
2018-05-03T22:05:44.152Z,15.40
2018-05-03T22:08:11.929Z,15.40
2018-05-03T22:10:40.560Z,15.40
2018-05-03T22:13:08.439Z,15.30
2018-05-03T22:15:36.118Z,15.30
2018-05-03T22:18:04.124Z,15.40
2018-05-03T22:20:32.866Z,15.30
2018-05-03T22:23:00.567Z,15.30
2018-05-03T22:25:28.227Z,15.30
2018-05-03T22:27:56.855Z,15.20
2018-05-03T22:30:24.490Z,15.20
2018-05-03T22:32:53.024Z,15.20
2018-05-03T22:35:20.811Z,15.20
2018-05-03T22:37:48.725Z,15.20
2018-05-03T22:40:17.651Z,15.20
2018-05-03T22:42:46.184Z,15.20
2018-05-03T22:45:13.789Z,15.10
2018-05-03T22:47:41.740Z,15.20
2018-05-03T22:50:09.811Z,15.10
2018-05-03T22:52:37.412Z,15.10
2018-05-03T22:55:06.255Z,15.10
2018-05-03T22:57:34.054Z,15.10
2018-05-03T23:00:02.618Z,15.20
2018-05-03T23:02:30.405Z,15.20
2018-05-03T23:04:58.050Z,15.30
2018-05-03T23:07:26.512Z,15.40
2018-05-03T23:09:54.313Z,15.40
2018-05-03T23:12:22.045Z,15.30
2018-05-03T23:14:49.711Z,15.40
2018-05-03T23:17:17.402Z,15.40
2018-05-03T23:19:45.118Z,15.40
2018-05-03T23:22:12.886Z,15.30
2018-05-03T23:24:40.863Z,15.30
2018-05-03T23:27:08.466Z,15.20
2018-05-03T23:29:36.111Z,15.10
2018-05-03T23:32:03.826Z,15.10
2018-05-03T23:34:31.625Z,15.10
2018-05-03T23:37:00.758Z,15.00
2018-05-03T23:39:29.404Z,15.00
2018-05-03T23:41:57.092Z,15.00
2018-05-03T23:44:24.869Z,15.00
2018-05-03T23:46:52.466Z,15.00
2018-05-03T23:49:20.283Z,15.00
2018-05-03T23:51:48.826Z,15.00
2018-05-03T23:54:16.546Z,15.00
2018-05-03T23:56:44.901Z,15.00
2018-05-03T23:59:12.511Z,15.00
